Time;durP1;ratioP1;P1;durP2;ratioP2;P2;SDS_P1;SDS_P2;PMS_P1;PMS_P2;Temp;Humidity;BMP_temperature;BMP_pressure;BME280_temperature;BME280_humidity;BME280_pressure;Samples;Min_cycle;Max_cycle;Signal;HPM_P1;HPM_P2
2021/07/18 00:01:15;;;;;;;5.80;2.00;;;18.20;99.90;;;;;;5040435;28;20577;-75
2021/07/18 00:03:41;;;;;;;7.80;2.93;;;18.20;99.90;;;;;;5049041;28;20178;-75
2021/07/18 00:06:16;;;;;;;2.87;1.33;;;18.20;99.90;;;;;;5041611;28;20218;-75
2021/07/18 00:08:46;;;;;;;4.83;1.80;;;18.20;99.90;;;;;;5070936;28;20216;-75
2021/07/18 00:11:16;;;;;;;9.57;1.90;;;18.20;99.90;;;;;;5053501;28;20423;-76
2021/07/18 00:13:42;;;;;;;3.60;1.67;;;18.20;99.90;;;;;;5055158;28;20408;-75
2021/07/18 00:16:10;;;;;;;8.57;1.93;;;18.10;99.90;;;;;;5053166;28;20529;-75
2021/07/18 00:18:35;;;;;;;4.83;2.30;;;18.20;99.90;;;;;;5050839;28;20608;-75
2021/07/18 00:21:01;;;;;;;4.83;1.67;;;18.10;99.90;;;;;;5034935;28;20405;-75
2021/07/18 00:23:28;;;;;;;4.53;1.87;;;18.10;99.90;;;;;;5042458;28;20179;-75
2021/07/18 00:26:04;;;;;;;9.60;2.20;;;18.10;99.90;;;;;;5066337;28;20757;-75
2021/07/18 00:28:30;;;;;;;3.03;1.70;;;18.00;99.90;;;;;;5034782;28;20905;-75
2021/07/18 00:30:56;;;;;;;5.47;2.10;;;18.00;99.90;;;;;;5035274;28;20460;-75
2021/07/18 00:33:34;;;;;;;2.63;1.90;;;18.00;99.90;;;;;;5053288;28;20400;-75
2021/07/18 00:36:00;;;;;;;9.80;1.77;;;17.90;99.90;;;;;;5034385;28;20390;-75
2021/07/18 00:38:26;;;;;;;5.60;1.93;;;;;;;;;;5034704;28;20431;-75
2021/07/18 00:40:52;;;;;;;11.03;2.40;;;17.90;99.90;;;;;;5033545;28;20626;-75
2021/07/18 00:43:28;;;;;;;3.07;2.13;;;17.90;99.90;;;;;;5034796;28;20402;-75
2021/07/18 00:46:04;;;;;;;2.23;1.70;;;17.80;99.90;;;;;;5034911;28;20417;-75
2021/07/18 00:48:32;;;;;;;2.10;1.60;;;17.80;99.90;;;;;;5038285;28;20511;-75
2021/07/18 00:50:59;;;;;;;5.20;1.73;;;17.80;99.90;;;;;;5034529;28;20737;-75
2021/07/18 00:53:40;;;;;;;9.57;2.10;;;17.80;99.90;;;;;;5034270;28;20859;-75
2021/07/18 00:56:11;;;;;;;4.03;1.50;;;17.80;99.90;;;;;;5034214;28;20436;-75
2021/07/18 00:58:37;;;;;;;2.03;1.50;;;17.80;99.90;;;;;;5045242;28;20459;-75
2021/07/18 01:01:03;;;;;;;3.87;1.70;;;17.80;99.90;;;;;;5052044;28;20387;-75
2021/07/18 01:03:29;;;;;;;6.77;2.07;;;17.80;99.90;;;;;;5047787;28;20434;-75
2021/07/18 01:05:55;;;;;;;7.60;1.60;;;17.80;99.90;;;;;;5034227;28;20171;-75
2021/07/18 01:08:21;;;;;;;3.10;1.53;;;17.70;99.90;;;;;;5034887;28;20421;-75
2021/07/18 01:10:52;;;;;;;4.40;2.10;;;17.70;99.90;;;;;;5043220;28;20419;-75
2021/07/18 01:13:18;;;;;;;3.67;2.10;;;;;;;;;;5052003;28;20391;-75
2021/07/18 01:15:46;;;;;;;3.70;1.97;;;17.60;99.90;;;;;;5053825;28;20396;-75
2021/07/18 01:18:13;;;;;;;5.63;1.70;;;17.60;99.90;;;;;;5040656;28;20487;-75
2021/07/18 01:20:40;;;;;;;2.07;1.87;;;17.60;99.90;;;;;;5034010;28;20395;-75
2021/07/18 01:23:16;;;;;;;3.83;1.97;;;17.60;99.90;;;;;;5034288;28;20904;-75
2021/07/18 01:25:55;;;;;;;3.93;2.10;;;17.50;99.90;;;;;;5053887;28;20385;-75
2021/07/18 01:28:21;;;;;;;2.17;1.93;;;17.50;99.90;;;;;;5053506;28;20412;-75
2021/07/18 01:30:48;;;;;;;6.50;2.23;;;17.40;99.90;;;;;;5045088;28;20462;-75
2021/07/18 01:33:14;;;;;;;8.70;1.80;;;17.40;99.90;;;;;;5044872;28;20423;-75
2021/07/18 01:35:39;;;;;;;4.30;1.60;;;17.40;99.90;;;;;;5051458;28;20432;-75
2021/07/18 01:38:12;;;;;;;6.70;2.00;;;17.40;99.90;;;;;;5041778;28;20178;-75
2021/07/18 01:40:40;;;;;;;5.60;2.30;;;17.30;99.90;;;;;;5051147;28;20261;-76
2021/07/18 01:43:10;;;;;;;3.37;2.10;;;17.40;99.90;;;;;;5053910;28;20382;-75
2021/07/18 01:45:36;;;;;;;6.83;2.07;;;17.40;99.90;;;;;;5053670;28;20500;-75
2021/07/18 01:48:10;;;;;;;9.47;1.77;;;17.30;99.90;;;;;;5035440;28;20816;-75
2021/07/18 01:50:36;;;;;;;3.57;1.77;;;17.30;99.90;;;;;;5034271;28;20391;-75
2021/07/18 01:53:16;;;;;;;10.23;2.10;;;17.30;99.90;;;;;;5037858;28;20714;-75
2021/07/18 01:55:42;;;;;;;3.20;1.83;;;17.30;99.90;;;;;;5037676;28;20176;-75
2021/07/18 01:58:07;;;;;;;4.67;2.00;;;17.30;99.90;;;;;;5037552;28;20390;-75
2021/07/18 02:00:34;;;;;;;4.83;2.07;;;17.20;99.90;;;;;;5049417;28;20170;-75
2021/07/18 02:03:00;;;;;;;5.57;1.70;;;17.20;99.90;;;;;;5044754;28;20189;-75
2021/07/18 02:05:25;;;;;;;2.90;1.90;;;17.10;99.90;;;;;;5037683;28;20372;-75
2021/07/18 02:07:52;;;;;;;6.60;2.37;;;17.10;99.90;;;;;;5085195;28;20180;-75
2021/07/18 02:10:22;;;;;;;4.47;1.80;;;17.00;99.90;;;;;;5056231;28;20169;-75
2021/07/18 02:12:49;;;;;;;6.20;1.83;;;17.00;99.90;;;;;;5053806;28;20875;-75
2021/07/18 02:15:19;;;;;;;6.40;1.80;;;17.00;99.90;;;;;;5037354;28;20466;-75
2021/07/18 02:17:52;;;;;;;4.70;2.07;;;16.90;99.90;;;;;;5035567;28;20424;-75
2021/07/18 02:20:20;;;;;;;4.90;1.77;;;16.90;99.90;;;;;;5037263;28;20819;-75
2021/07/18 02:22:53;;;;;;;2.43;1.70;;;16.90;99.90;;;;;;5037350;28;20907;-75
2021/07/18 02:25:29;;;;;;;3.20;1.40;;;16.80;99.90;;;;;;5036994;28;20371;-75
2021/07/18 02:27:56;;;;;;;3.20;2.00;;;16.80;99.90;;;;;;5037602;28;20406;-75
2021/07/18 02:30:25;;;;;;;3.20;1.67;;;16.80;99.90;;;;;;5036541;28;20425;-76
2021/07/18 02:32:52;;;;;;;1.87;1.60;;;16.70;99.90;;;;;;5035742;28;20412;-75
2021/07/18 02:35:23;;;;;;;8.33;2.00;;;16.70;99.90;;;;;;5037128;28;20796;-75
2021/07/18 02:37:52;;;;;;;3.40;2.10;;;16.60;99.90;;;;;;5037257;28;20906;-75
2021/07/18 02:40:39;;;;;;;8.80;2.40;;;16.60;99.90;;;;;;5050394;28;20977;-75
2021/07/18 02:43:06;;;;;;;2.40;2.03;;;16.50;99.90;;;;;;5052974;28;20382;-75
2021/07/18 02:45:32;;;;;;;4.20;2.00;;;16.50;99.90;;;;;;5036827;28;20442;-75
2021/07/18 02:47:58;;;;;;;8.23;2.30;;;16.40;99.90;;;;;;5036540;28;20411;-75
2021/07/18 02:50:28;;;;;;;2.40;2.10;;;16.40;99.90;;;;;;5035494;28;20766;-76
2021/07/18 02:52:55;;;;;;;2.50;2.30;;;16.30;99.90;;;;;;5036511;28;20389;-75
2021/07/18 02:55:22;;;;;;;3.87;2.00;;;16.30;99.90;;;;;;5036859;28;20405;-76
2021/07/18 02:57:48;;;;;;;2.50;2.20;;;16.30;99.90;;;;;;5038224;28;20503;-75
2021/07/18 03:00:19;;;;;;;6.87;2.20;;;16.20;99.90;;;;;;5036930;28;20901;-75
2021/07/18 03:02:46;;;;;;;7.63;2.20;;;16.20;99.90;;;;;;5035735;28;20367;-75
2021/07/18 03:05:16;;;;;;;3.33;1.93;;;16.20;99.90;;;;;;5036200;28;20397;-75
2021/07/18 03:07:43;;;;;;;3.57;2.00;;;16.10;99.90;;;;;;5036023;28;20500;-76
2021/07/18 03:10:23;;;;;;;3.40;2.27;;;16.10;99.90;;;;;;5036290;28;20430;-75
2021/07/18 03:12:49;;;;;;;5.87;2.30;;;16.10;99.90;;;;;;5036352;28;20369;-75
2021/07/18 03:15:16;;;;;;;4.60;2.40;;;16.00;99.90;;;;;;5036643;28;20717;-75
2021/07/18 03:17:43;;;;;;;6.97;2.40;;;16.00;99.90;;;;;;5036231;28;20820;-75
2021/07/18 03:20:12;;;;;;;3.07;2.50;;;16.00;99.90;;;;;;5036118;28;20422;-75
2021/07/18 03:22:40;;;;;;;1.90;1.60;;;15.90;99.90;;;;;;5036038;28;20961;-76
2021/07/18 03:25:07;;;;;;;8.60;2.63;;;15.90;99.90;;;;;;5053351;28;20426;-75
2021/07/18 03:27:35;;;;;;;7.50;2.30;;;15.90;99.90;;;;;;5044867;28;20441;-75
2021/07/18 03:30:01;;;;;;;7.33;2.37;;;15.90;99.90;;;;;;5036133;28;20500;-75
2021/07/18 03:32:26;;;;;;;3.63;2.03;;;15.90;99.90;;;;;;5035636;28;20708;-75
2021/07/18 03:34:54;;;;;;;6.83;2.23;;;;;;;;;;5035570;28;20410;-75
2021/07/18 03:37:20;;;;;;;8.90;2.40;;;15.90;99.90;;;;;;5044744;28;20199;-75
2021/07/18 03:39:46;;;;;;;4.87;2.77;;;15.90;99.90;;;;;;5035708;28;20976;-75
2021/07/18 03:42:12;;;;;;;8.67;2.50;;;15.90;99.90;;;;;;5048596;28;20385;-75
2021/07/18 03:44:39;;;;;;;6.40;2.60;;;15.90;99.90;;;;;;5054815;28;20468;-75
2021/07/18 03:47:06;;;;;;;4.60;2.40;;;15.90;99.90;;;;;;5039386;28;20170;-76
2021/07/18 03:49:34;;;;;;;6.77;2.53;;;15.90;99.90;;;;;;5035686;28;20392;-75
2021/07/18 03:52:04;;;;;;;2.77;2.07;;;15.90;99.90;;;;;;5035836;28;20442;-75
2021/07/18 03:54:34;;;;;;;2.83;2.13;;;15.90;99.90;;;;;;5041570;28;20889;-75
2021/07/18 03:57:00;;;;;;;3.83;2.37;;;15.90;99.90;;;;;;5049213;28;20401;-75
2021/07/18 03:59:28;;;;;;;8.20;2.33;;;15.90;99.90;;;;;;5036070;28;20455;-75
2021/07/18 04:01:54;;;;;;;4.77;2.23;;;15.90;99.90;;;;;;5035109;28;20226;-76
2021/07/18 04:04:22;;;;;;;3.30;2.50;;;15.90;99.90;;;;;;5035364;28;20393;-76
2021/07/18 04:07:04;;;;;;;4.00;2.53;;;15.90;99.90;;;;;;5035234;28;20613;-75
2021/07/18 04:09:34;;;;;;;6.50;2.57;;;16.00;99.90;;;;;;5035269;28;20788;-75
2021/07/18 04:12:00;;;;;;;6.20;2.67;;;16.00;99.90;;;;;;5035221;28;20888;-75
2021/07/18 04:14:40;;;;;;;3.83;2.13;;;16.00;99.90;;;;;;5035302;28;20513;-75
2021/07/18 04:17:06;;;;;;;6.90;2.60;;;16.00;99.90;;;;;;5039781;28;20203;-75
2021/07/18 04:19:34;;;;;;;9.60;2.90;;;16.00;99.90;;;;;;5053514;28;20481;-75
2021/07/18 04:22:10;;;;;;;6.13;2.60;;;16.10;99.90;;;;;;5054743;28;20366;-75
2021/07/18 04:24:46;;;;;;;6.13;2.30;;;16.10;99.90;;;;;;5075050;28;20854;-75
2021/07/18 04:27:28;;;;;;;2.53;2.03;;;16.10;99.90;;;;;;5034741;28;20406;-75
2021/07/18 04:29:53;;;;;;;4.17;2.03;;;16.20;99.90;;;;;;5035839;28;20409;-75
2021/07/18 04:32:39;;;;;;;7.20;3.07;;;16.20;99.90;;;;;;5048213;28;20806;-75
2021/07/18 04:35:06;;;;;;;8.23;2.43;;;16.20;99.90;;;;;;5034581;28;20172;-75
2021/07/18 04:37:31;;;;;;;4.70;2.20;;;16.20;99.90;;;;;;5034507;28;20514;-75
2021/07/18 04:39:57;;;;;;;7.20;2.47;;;16.30;99.90;;;;;;5034632;28;20888;-75
2021/07/18 04:42:34;;;;;;;5.30;2.90;;;16.30;99.90;;;;;;5034448;28;20175;-75
2021/07/18 04:44:59;;;;;;;6.10;2.40;;;16.40;99.90;;;;;;5035127;28;20656;-75
2021/07/18 04:47:43;;;;;;;3.20;2.37;;;16.50;99.90;;;;;;5034853;28;20401;-75
2021/07/18 04:50:10;;;;;;;5.40;2.70;;;16.50;99.90;;;;;;5034318;28;21429;-75
2021/07/18 04:52:40;;;;;;;8.80;2.33;;;16.60;99.90;;;;;;5033009;28;20766;-75
2021/07/18 04:55:11;;;;;;;3.57;2.57;;;16.60;99.90;;;;;;5066199;28;20387;-75
2021/07/18 04:57:40;;;;;;;3.37;2.53;;;16.70;99.90;;;;;;5034128;28;20416;-75
2021/07/18 05:00:18;;;;;;;5.93;2.33;;;16.80;99.90;;;;;;5038179;28;20486;-75
2021/07/18 05:02:46;;;;;;;3.30;2.30;;;16.80;99.90;;;;;;5034097;28;20749;-75
2021/07/18 05:05:14;;;;;;;4.30;2.07;;;16.80;99.90;;;;;;5034156;28;20374;-75
2021/07/18 05:07:56;;;;;;;2.63;2.20;;;16.90;99.90;;;;;;5033081;28;20419;-75
2021/07/18 05:10:23;;;;;;;4.07;2.63;;;16.90;99.90;;;;;;5033987;28;20418;-76
2021/07/18 05:12:59;;;;;;;6.03;2.50;;;17.00;99.90;;;;;;5034086;28;20378;-75
2021/07/18 05:15:28;;;;;;;6.93;2.20;;;17.10;99.90;;;;;;5034448;28;20780;-75
2021/07/18 05:18:24;;;;;;;10.03;2.60;;;17.20;99.90;;;;;;5034180;28;20429;-75
2021/07/18 05:20:52;;;;;;;2.30;2.10;;;17.30;99.90;;;;;;5011433;28;21004;-75
2021/07/18 05:26:39;;;;;;;6.70;2.37;;;17.50;99.90;;;;;;5011543;28;20348;-82
2021/07/18 05:29:10;;;;;;;4.60;2.47;;;17.50;99.90;;;;;;5011126;28;20769;-77
2021/07/18 05:31:46;;;;;;;3.57;1.90;;;17.60;99.90;;;;;;5011694;28;20202;-78
2021/07/18 05:34:33;;;;;;;1.80;1.70;;;17.70;99.90;;;;;;5011521;28;20396;-78
2021/07/18 05:37:16;;;;;;;4.70;2.10;;;17.90;99.90;;;;;;5010919;28;20415;-77
2021/07/18 05:40:04;;;;;;;2.70;1.73;;;18.00;99.90;;;;;;4994970;28;20994;-77
2021/07/18 05:42:30;;;;;;;4.10;2.30;;;18.00;99.90;;;;;;5011771;28;20394;-78
2021/07/18 05:45:05;;;;;;;2.60;1.83;;;18.20;99.90;;;;;;5011970;28;20416;-77
2021/07/18 05:47:33;;;;;;;3.70;1.60;;;18.20;99.90;;;;;;5011413;28;20397;-78
2021/07/18 05:50:05;;;;;;;4.90;1.80;;;18.30;99.90;;;;;;5011631;28;20574;-77
2021/07/18 05:52:35;;;;;;;4.97;2.00;;;18.30;99.90;;;;;;5012103;28;20420;-77
2021/07/18 05:55:01;;;;;;;2.27;1.77;;;18.40;99.90;;;;;;5011868;28;20514;-77
2021/07/18 05:57:35;;;;;;;2.70;1.90;;;18.50;99.90;;;;;;5024331;28;20516;-77
2021/07/18 06:00:33;;;;;;;4.63;2.40;;;18.50;99.90;;;;;;5034176;28;20819;-77
2021/07/18 06:03:04;;;;;;;3.83;1.50;;;18.60;99.90;;;;;;5033149;28;20397;-78
2021/07/18 06:05:30;;;;;;;2.30;1.90;;;;;;;;;;5065572;28;20393;-77
2021/07/18 06:08:10;;;;;;;4.10;1.73;;;18.70;99.90;;;;;;5040604;28;20575;-78
2021/07/18 06:11:09;;;;;;;1.73;1.63;;;18.70;99.90;;;;;;5033532;28;20414;-77
2021/07/18 06:13:40;;;;;;;2.20;1.37;;;18.80;99.90;;;;;;5033413;28;20429;-77
2021/07/18 06:16:06;;;;;;;8.83;2.47;;;18.80;99.90;;;;;;5033640;28;20394;-77
2021/07/18 06:18:35;;;;;;;4.70;2.13;;;18.80;99.90;;;;;;5052813;28;20452;-77
2021/07/18 06:21:21;;;;;;;1.57;1.47;;;19.00;99.90;;;;;;5045825;28;20433;-77
2021/07/18 06:24:04;;;;;;;6.40;1.90;;;19.00;99.90;;;;;;5053333;28;20926;-77
2021/07/18 06:26:34;;;;;;;4.10;1.50;;;19.00;99.90;;;;;;5052507;28;20396;-77
2021/07/18 06:29:04;;;;;;;10.70;2.17;;;19.10;99.90;;;;;;5051621;28;20392;-78
2021/07/18 06:31:30;;;;;;;2.90;1.77;;;19.20;99.90;;;;;;5051592;28;20441;-77
2021/07/18 06:34:15;;;;;;;1.83;1.30;;;19.20;99.90;;;;;;5039752;28;20418;-81
2021/07/18 06:36:58;;;;;;;1.57;1.40;;;19.30;99.90;;;;;;5047477;28;20436;-79
2021/07/18 06:39:52;;;;;;;8.63;1.77;;;19.40;99.90;;;;;;5055494;28;20479;-78
2021/07/18 06:42:45;;;;;;;3.23;1.60;;;19.50;99.90;;;;;;5037056;28;20402;-78
2021/07/18 06:45:33;;;;;;;1.93;1.30;;;19.60;99.90;;;;;;5037121;28;20754;-80
2021/07/18 06:48:10;;;;;;;3.47;1.70;;;19.70;99.90;;;;;;5036684;28;20393;-79
2021/07/18 06:50:40;;;;;;;3.33;1.57;;;19.70;99.90;;;;;;5052094;28;20413;-80
2021/07/18 06:53:23;;;;;;;2.73;1.47;;;19.80;99.90;;;;;;5036312;28;20417;-79
2021/07/18 06:56:21;;;;;;;6.10;1.53;;;19.90;99.90;;;;;;5036319;28;20365;-79
2021/07/18 06:58:47;;;;;;;3.60;1.57;;;20.00;99.90;;;;;;5036260;28;20416;-78
2021/07/18 07:01:28;;;;;;;7.20;1.47;;;20.00;99.90;;;;;;5040403;28;20419;-83
2021/07/18 07:04:39;;;;;;;5.70;1.57;;;20.30;99.90;;;;;;5035473;28;20374;-83
2021/07/18 07:07:48;;;;;;;12.80;1.50;;;20.30;99.90;;;;;;5036677;28;20490;-83
2021/07/18 07:13:52;;;;;;;1.93;1.23;;;20.60;99.90;;;;;;5036204;28;20482;-83
2021/07/18 07:16:51;;;;;;;3.80;1.20;;;20.60;99.90;;;;;;5036543;28;20483;-82
2021/07/18 07:19:28;;;;;;;1.70;1.10;;;20.70;99.90;;;;;;5035774;28;20450;-83
2021/07/18 07:21:58;;;;;;;1.77;1.40;;;20.90;99.90;;;;;;5036770;28;20915;-83
2021/07/18 07:24:48;;;;;;;1.67;1.50;;;20.90;99.90;;;;;;5045092;28;20919;-84
2021/07/18 07:27:34;;;;;;;5.57;1.70;;;21.10;99.90;;;;;;5054889;28;20911;-84
2021/07/18 07:30:07;;;;;;;4.10;1.57;;;21.20;99.90;;;;;;5036215;28;20634;-84
2021/07/18 07:32:41;;;;;;;1.30;1.20;;;21.30;99.90;;;;;;5036551;28;20420;-84
2021/07/18 07:35:12;;;;;;;2.80;1.43;;;21.60;99.90;;;;;;5038378;28;20393;-84
2021/07/18 07:37:46;;;;;;;1.37;1.10;;;21.60;99.90;;;;;;5055977;28;20385;-84
2021/07/18 07:40:18;;;;;;;5.37;1.60;;;21.70;99.90;;;;;;5055715;28;20764;-84
2021/07/18 07:42:46;;;;;;;4.80;1.60;;;21.80;99.90;;;;;;5052598;28;20448;-84
2021/07/18 07:45:34;;;;;;;3.47;1.20;;;21.80;99.90;;;;;;5055561;28;20450;-84
2021/07/18 07:51:21;;;;;;;2.03;1.40;;;22.00;99.90;;;;;;5038789;28;20456;-84
2021/07/18 07:57:34;;;;;;;3.00;1.50;;;22.20;99.90;;;;;;5055395;28;20457;-84
2021/07/18 08:00:10;;;;;;;4.57;1.80;;;22.30;99.90;;;;;;5048387;28;20524;-84
2021/07/18 08:06:10;;;;;;;2.90;1.13;;;22.40;99.90;;;;;;5054558;28;20416;-84
2021/07/18 08:08:36;;;;;;;1.30;1.20;;;22.50;99.90;;;;;;5053347;28;20447;-84
2021/07/18 08:11:27;;;;;;;4.70;1.73;;;22.60;99.90;;;;;;5052487;28;20500;-84
2021/07/18 08:17:15;;;;;;;2.13;1.37;;;22.70;99.90;;;;;;5035349;28;20341;-82
2021/07/18 08:20:11;;;;;;;1.70;1.37;;;22.80;99.90;;;;;;5034463;28;20458;-82
2021/07/18 08:25:59;;;;;;;2.97;1.40;;;;;;;;;;5033989;28;20380;-81
2021/07/18 08:35:09;;;;;;;2.80;1.40;;;23.30;99.90;;;;;;5054611;28;20437;-83
2021/07/18 08:37:47;;;;;;;2.90;1.40;;;23.40;99.90;;;;;;5052736;28;20430;-81
2021/07/18 08:40:14;;;;;;;3.03;1.30;;;23.50;99.90;;;;;;5053758;28;20491;-81
2021/07/18 08:42:40;;;;;;;1.03;1.00;;;23.50;99.90;;;;;;5039479;28;20411;-79
2021/07/18 08:45:22;;;;;;;2.60;1.07;;;23.60;99.90;;;;;;5054222;28;20396;-78
2021/07/18 08:47:48;;;;;;;4.67;1.50;;;23.60;99.90;;;;;;5040592;28;20425;-79
2021/07/18 08:50:28;;;;;;;2.30;1.33;;;23.80;99.90;;;;;;5033699;28;20396;-79
2021/07/18 08:52:58;;;;;;;4.27;1.20;;;23.80;99.90;;;;;;5040086;28;20184;-78
2021/07/18 08:55:28;;;;;;;1.00;0.90;;;23.80;99.90;;;;;;5046968;28;20432;-78
2021/07/18 08:58:04;;;;;;;5.77;1.90;;;23.90;99.90;;;;;;5040775;28;20425;-82
2021/07/18 09:00:34;;;;;;;3.63;1.47;;;24.10;99.90;;;;;;5038143;28;20471;-81
2021/07/18 09:03:22;;;;;;;4.33;1.40;;;24.10;99.90;;;;;;5048874;28;20894;-80
2021/07/18 09:09:13;;;;;;;2.97;1.20;;;24.20;99.90;;;;;;5033703;28;20392;-81
2021/07/18 09:15:00;;;;;;;2.60;1.10;;;24.50;99.90;;;;;;5033843;28;20459;-82
2021/07/18 09:17:36;;;;;;;1.30;0.83;;;24.50;99.90;;;;;;5034238;28;20917;-81
2021/07/18 09:24:15;;;;;;;3.13;1.20;;;24.70;99.90;;;;;;5041340;28;20561;-81
2021/07/18 09:27:27;;;;;;;10.53;1.10;;;24.70;99.90;;;;;;5033550;28;20434;-82
2021/07/18 09:29:57;;;;;;;6.10;1.03;;;24.70;99.90;;;;;;5033165;28;20901;-81
2021/07/18 09:35:46;;;;;;;1.37;1.20;;;24.80;99.90;;;;;;5053397;28;20768;-81
2021/07/18 09:41:38;;;;;;;1.90;1.20;;;25.20;99.90;;;;;;5033054;28;20202;-80
2021/07/18 09:50:47;;;;;;;1.97;0.90;;;25.50;99.90;;;;;;5052708;28;20380;-81
2021/07/18 09:59:56;;;;;;;5.07;1.17;;;25.70;99.90;;;;;;5051781;28;20459;-81
2021/07/18 10:03:21;;;;;;;4.50;1.10;;;25.80;99.90;;;;;;5053752;28;20471;-81
2021/07/18 10:12:33;;;;;;;1.37;0.90;;;26.10;99.90;;;;;;5035098;28;20470;-82
2021/07/18 10:18:20;;;;;;;4.00;1.20;;;26.30;99.90;;;;;;5037157;28;20381;-82
2021/07/18 10:20:47;;;;;;;3.37;1.00;;;26.30;99.90;;;;;;5036882;28;20446;-82
2021/07/18 10:26:35;;;;;;;1.57;1.20;;;26.40;99.90;;;;;;5050853;28;20415;-82
2021/07/18 10:29:02;;;;;;;1.37;1.10;;;26.40;99.90;;;;;;5056899;28;20407;-82
2021/07/18 10:31:38;;;;;;;4.10;1.70;;;26.60;99.90;;;;;;5056230;28;20925;-81
2021/07/18 10:34:53;;;;;;;1.30;1.20;;;26.60;99.90;;;;;;5052386;28;20429;-82
2021/07/18 10:37:39;;;;;;;2.77;1.50;;;26.60;99.90;;;;;;5037986;28;20454;-82
2021/07/18 10:43:40;;;;;;;1.73;1.23;;;26.80;99.90;;;;;;5036485;28;20447;-77
2021/07/18 10:46:09;;;;;;;2.83;1.00;;;26.90;99.90;;;;;;5036600;28;20447;-75
2021/07/18 10:48:52;;;;;;;2.97;1.20;;;26.90;99.90;;;;;;5056729;28;20487;-76
2021/07/18 10:51:20;;;;;;;1.23;0.90;;;26.90;99.90;;;;;;5053065;28;20499;-76
2021/07/18 10:53:49;;;;;;;2.33;0.90;;;27.00;99.90;;;;;;5036823;28;20389;-76
2021/07/18 10:56:20;;;;;;;2.50;1.20;;;27.00;99.90;;;;;;5036457;28;20496;-76
2021/07/18 10:58:53;;;;;;;21.50;1.50;;;27.20;99.90;;;;;;5036334;28;20530;-76
2021/07/18 11:01:29;;;;;;;1.40;1.10;;;27.30;99.90;;;;;;5036383;28;20390;-75
2021/07/18 11:03:55;;;;;;;2.60;1.10;;;27.30;99.90;;;;;;5036492;28;20405;-76
2021/07/18 11:06:29;;;;;;;2.70;1.30;;;27.30;99.90;;;;;;5036139;28;20423;-77
2021/07/18 11:09:22;;;;;;;5.03;1.13;;;27.40;99.90;;;;;;5036335;28;20164;-76
2021/07/18 11:11:50;;;;;;;4.53;1.57;;;27.40;99.90;;;;;;5038745;28;20934;-75
2021/07/18 11:14:36;;;;;;;3.13;1.10;;;27.40;99.90;;;;;;5044689;28;20419;-75
2021/07/18 11:17:34;;;;;;;1.53;1.20;;;27.40;99.90;;;;;;5035943;28;20420;-76
2021/07/18 11:20:04;;;;;;;1.40;1.20;;;27.40;99.90;;;;;;5035863;28;20451;-76
2021/07/18 11:23:04;;;;;;;1.53;1.17;;;27.60;99.90;;;;;;5036013;28;20412;-76
2021/07/18 11:26:02;;;;;;;0.90;0.90;;;27.60;99.90;;;;;;5039093;28;20678;-76
2021/07/18 11:29:07;;;;;;;1.30;1.00;;;27.60;99.90;;;;;;5056159;28;20507;-77
2021/07/18 11:31:46;;;;;;;5.43;1.60;;;27.70;99.90;;;;;;5055539;28;20444;-77
2021/07/18 11:34:14;;;;;;;5.90;1.23;;;27.80;99.90;;;;;;5052922;28;20779;-75
2021/07/18 11:36:39;;;;;;;2.03;1.00;;;28.10;99.90;;;;;;5035512;28;20414;-74
2021/07/18 11:39:18;;;;;;;1.90;1.37;;;28.00;99.90;;;;;;5035373;28;20545;-75
2021/07/18 11:41:44;;;;;;;3.17;1.53;;;27.90;99.90;;;;;;5035548;28;20156;-75
2021/07/18 11:44:12;;;;;;;4.63;1.47;;;27.80;99.90;;;;;;5035600;28;20463;-75
2021/07/18 11:46:44;;;;;;;3.30;1.50;;;27.80;99.90;;;;;;5039743;28;20421;-75
2021/07/18 11:49:12;;;;;;;2.23;1.50;;;28.00;99.90;;;;;;5035468;28;20425;-77
2021/07/18 11:51:40;;;;;;;1.60;1.30;;;28.00;99.90;;;;;;5035522;28;20401;-76
2021/07/18 11:54:10;;;;;;;5.07;1.40;;;28.40;99.90;;;;;;5035063;28;20421;-77
2021/07/18 11:56:41;;;;;;;3.60;1.60;;;28.50;99.90;;;;;;5042941;28;20993;-76
2021/07/18 11:59:14;;;;;;;1.50;1.40;;;28.50;99.90;;;;;;5035070;28;20446;-76
2021/07/18 12:01:42;;;;;;;1.67;1.30;;;28.60;99.90;;;;;;5035282;28;20752;-75
2021/07/18 12:04:24;;;;;;;7.17;1.40;;;28.70;99.90;;;;;;5039405;28;20880;-76
2021/07/18 12:06:52;;;;;;;2.80;1.30;;;28.70;99.90;;;;;;5035421;28;20890;-76
2021/07/18 12:09:21;;;;;;;2.30;1.00;;;28.80;99.90;;;;;;5035252;28;20436;-75
2021/07/18 12:11:48;;;;;;;2.43;1.27;;;28.80;99.90;;;;;;5038346;28;20436;-75
2021/07/18 12:14:15;;;;;;;1.93;1.60;;;28.90;99.90;;;;;;5036479;28;20463;-76
2021/07/18 12:16:58;;;;;;;2.10;1.30;;;29.10;99.90;;;;;;5034769;28;20413;-76
2021/07/18 12:19:26;;;;;;;4.63;1.40;;;29.10;99.90;;;;;;5034710;28;20545;-73
2021/07/18 12:21:53;;;;;;;1.93;1.33;;;29.10;99.90;;;;;;5034724;28;20402;-73
2021/07/18 12:24:28;;;;;;;2.20;1.30;;;29.30;99.90;;;;;;5049254;28;20406;-74
2021/07/18 12:27:01;;;;;;;2.70;1.80;;;29.30;99.90;;;;;;5043298;28;20909;-74
2021/07/18 12:29:48;;;;;;;1.87;1.23;;;29.30;99.90;;;;;;5034525;28;20437;-74
2021/07/18 12:32:15;;;;;;;1.47;1.30;;;29.20;99.90;;;;;;5034042;28;20444;-74
2021/07/18 12:34:47;;;;;;;1.70;1.53;;;29.30;99.90;;;;;;5034129;28;20494;-76
2021/07/18 12:37:19;;;;;;;1.70;1.60;;;29.30;99.90;;;;;;5049347;28;20424;-76
2021/07/18 12:40:00;;;;;;;1.27;1.17;;;29.50;99.90;;;;;;5041272;28;20863;-76
2021/07/18 12:42:34;;;;;;;1.30;1.20;;;29.60;99.90;;;;;;5035006;28;20779;-76
2021/07/18 12:45:11;;;;;;;2.90;1.60;;;29.70;99.90;;;;;;5036793;28;20402;-76
2021/07/18 12:47:50;;;;;;;3.30;1.30;;;29.70;99.90;;;;;;5053809;28;20447;-77
2021/07/18 12:50:28;;;;;;;1.53;1.20;;;29.90;99.90;;;;;;5054587;28;20405;-76
2021/07/18 12:53:22;;;;;;;1.80;1.13;;;30.00;99.90;;;;;;5054165;28;20393;-76
2021/07/18 12:55:57;;;;;;;3.00;1.30;;;29.90;99.90;;;;;;5033900;28;20918;-76
2021/07/18 12:58:42;;;;;;;3.10;1.20;;;29.90;99.90;;;;;;5034094;28;21074;-76
2021/07/18 13:01:18;;;;;;;1.27;1.17;;;29.90;99.90;;;;;;5052560;28;20418;-76
2021/07/18 13:03:49;;;;;;;1.00;0.80;;;30.20;99.90;;;;;;5053943;28;20890;-76
2021/07/18 13:06:21;;;;;;;1.43;1.10;;;30.20;99.90;;;;;;5052018;28;20453;-74
2021/07/18 13:08:58;;;;;;;3.43;1.10;;;30.20;99.90;;;;;;5053500;28;20465;-73
2021/07/18 13:11:41;;;;;;;2.03;1.77;;;30.40;99.90;;;;;;5053659;28;20488;-74
2021/07/18 13:14:30;;;;;;;2.03;1.07;;;30.50;99.90;;;;;;5053587;28;20387;-74
2021/07/18 13:17:19;;;;;;;1.93;1.23;;;30.50;99.90;;;;;;5053364;28;20773;-74
2021/07/18 13:20:00;;;;;;;4.97;1.13;;;30.60;99.90;;;;;;5034328;28;20943;-74
2021/07/18 13:22:27;;;;;;;1.83;1.50;;;30.60;99.90;;;;;;5051165;28;20436;-73
2021/07/18 13:24:54;;;;;;;3.17;1.20;;;30.50;99.90;;;;;;5047419;28;20447;-74
2021/07/18 13:27:22;;;;;;;1.73;1.00;;;30.50;99.90;;;;;;5053707;28;20418;-74
2021/07/18 13:29:52;;;;;;;1.83;1.00;;;30.70;99.90;;;;;;5051230;28;20505;-74
2021/07/18 13:32:22;;;;;;;3.33;1.10;;;30.80;99.90;;;;;;5053203;28;20467;-74
2021/07/18 13:34:57;;;;;;;2.90;1.30;;;30.80;99.90;;;;;;5041790;28;20425;-73
2021/07/18 13:37:43;;;;;;;1.27;1.17;;;30.80;99.90;;;;;;5033096;28;20506;-73
2021/07/18 13:40:30;;;;;;;2.07;1.10;;;30.80;99.90;;;;;;5033286;28;20447;-74
2021/07/18 13:43:11;;;;;;;1.43;1.33;;;30.70;99.90;;;;;;5033292;28;20388;-74
2021/07/18 13:45:45;;;;;;;2.97;1.20;;;30.80;99.90;;;;;;5033193;28;20898;-74
2021/07/18 13:48:15;;;;;;;7.83;1.20;;;30.80;99.90;;;;;;5036630;28;20387;-73
2021/07/18 13:50:42;;;;;;;8.30;1.30;;;30.80;99.90;;;;;;5037752;28;20414;-73
2021/07/18 13:53:09;;;;;;;1.17;1.03;;;30.70;99.90;;;;;;5037587;28;20431;-74
2021/07/18 13:55:35;;;;;;;1.30;1.20;;;30.70;99.90;;;;;;5042898;28;20422;-75
2021/07/18 13:58:03;;;;;;;1.47;1.20;;;30.80;99.90;;;;;;5056892;28;20471;-76
2021/07/18 14:00:30;;;;;;;1.30;1.20;;;31.00;99.90;;;;;;5055653;28;20975;-76
2021/07/18 14:06:23;;;;;;;1.63;1.20;;;31.00;99.90;;;;;;5054333;28;20448;-82
2021/07/18 14:12:11;;;;;;;2.73;1.40;;;31.00;99.90;;;;;;5056978;28;20413;-80
2021/07/18 14:14:36;;;;;;;1.63;1.30;;;30.90;99.90;;;;;;5048717;28;20755;-76
2021/07/18 14:17:02;;;;;;;3.27;1.30;;;31.10;99.90;;;;;;5039849;28;20156;-76
2021/07/18 14:19:28;;;;;;;2.80;1.30;;;31.20;99.90;;;;;;5055986;28;20274;-76
2021/07/18 14:21:54;;;;;;;2.70;1.40;;;31.30;99.90;;;;;;5057511;28;20242;-77
2021/07/18 14:24:20;;;;;;;2.50;1.40;;;31.30;99.90;;;;;;5052538;28;20168;-76
2021/07/18 14:26:46;;;;;;;1.20;1.10;;;31.30;99.90;;;;;;5046693;28;20480;-76
2021/07/18 14:29:12;;;;;;;1.20;1.10;;;31.40;99.90;;;;;;5041982;28;20181;-76
2021/07/18 14:31:38;;;;;;;1.60;1.50;;;31.40;99.90;;;;;;5036560;28;20435;-78
2021/07/18 14:34:03;;;;;;;4.10;1.43;;;31.50;99.90;;;;;;5040927;28;20179;-77
2021/07/18 14:36:46;;;;;;;2.47;1.30;;;31.60;99.90;;;;;;5057231;28;20394;-76
2021/07/18 14:42:48;;;;;;;4.70;1.50;;;31.60;99.90;;;;;;5036470;28;20768;-80
2021/07/18 14:48:35;;;;;;;1.77;1.40;;;31.80;99.90;;;;;;5036355;28;20407;-80
2021/07/18 14:54:40;;;;;;;2.30;1.30;;;32.00;99.90;;;;;;5056142;28;20202;-83